createdAt,value
2023-05-22T00:00:37.763Z,1011.07
2023-05-22T00:01:38.047Z,1011.08
2023-05-22T00:02:38.132Z,1011.11
2023-05-22T00:03:38.012Z,1011.15
2023-05-22T00:04:37.989Z,1011.13
2023-05-22T00:05:38.056Z,1011.17
2023-05-22T00:06:37.285Z,1011.19
2023-05-22T00:07:37.969Z,1011.17
2023-05-22T00:08:37.946Z,1011.17
2023-05-22T00:09:37.958Z,1011.15
2023-05-22T00:10:37.347Z,1011.12
2023-05-22T00:11:37.932Z,1011.06
2023-05-22T00:12:37.910Z,1011.01
2023-05-22T00:13:37.241Z,1011.03
2023-05-22T00:14:37.200Z,1011.01
2023-05-22T00:15:37.889Z,1010.99
2023-05-22T00:16:37.305Z,1011.01
2023-05-22T00:17:37.921Z,1011.02
2023-05-22T00:18:37.184Z,1010.99
2023-05-22T00:19:37.869Z,1011.02
2023-05-22T00:20:38.047Z,1011.03
2023-05-22T00:21:37.820Z,1011.04
2023-05-22T00:22:37.190Z,1011.00
2023-05-22T00:23:37.103Z,1010.93
2023-05-22T00:24:37.096Z,1011.01
2023-05-22T00:25:37.774Z,1010.89
2023-05-22T00:26:37.126Z,1010.86
2023-05-22T00:27:37.103Z,1010.78
2023-05-22T00:28:37.749Z,1010.72
2023-05-22T00:29:37.036Z,1010.70
2023-05-22T00:30:37.952Z,1010.69
2023-05-22T00:31:37.697Z,1010.72
2023-05-22T00:32:37.753Z,1010.70
2023-05-22T00:33:37.738Z,1010.77
2023-05-22T00:34:37.710Z,1010.78
2023-05-22T00:35:36.994Z,1010.82
2023-05-22T00:36:36.987Z,1010.86
2023-05-22T00:37:36.967Z,1010.78
2023-05-22T00:38:37.655Z,1010.85
2023-05-22T00:39:37.627Z,1010.87
2023-05-22T00:40:37.129Z,1010.82
2023-05-22T00:41:37.587Z,1010.85
2023-05-22T00:42:36.921Z,1010.85
2023-05-22T00:43:37.600Z,1010.87
2023-05-22T00:44:37.581Z,1010.92
2023-05-22T00:45:37.547Z,1010.92
2023-05-22T00:46:37.566Z,1010.93
2023-05-22T00:47:36.885Z,1010.97
2023-05-22T00:48:36.852Z,1010.99
2023-05-22T00:49:36.849Z,1011.02
2023-05-22T00:50:37.827Z,1011.00
2023-05-22T00:51:37.498Z,1011.02
2023-05-22T00:52:37.491Z,1010.93
2023-05-22T00:53:37.474Z,1010.88
2023-05-22T00:54:37.463Z,1010.84
2023-05-22T00:55:37.441Z,1010.75
2023-05-22T00:56:37.442Z,1010.72
2023-05-22T00:57:37.436Z,1010.77
2023-05-22T00:58:36.728Z,1010.78
2023-05-22T00:59:36.740Z,1010.80
2023-05-22T01:00:37.516Z,1010.78
2023-05-22T01:01:36.747Z,1010.84
2023-05-22T01:02:36.744Z,1010.81
2023-05-22T01:03:37.534Z,1010.82
2023-05-22T01:04:37.341Z,1010.80
2023-05-22T01:05:37.369Z,1010.79
2023-05-22T01:06:36.699Z,1010.74
2023-05-22T01:07:37.323Z,1010.70
2023-05-22T01:08:36.631Z,1010.74
2023-05-22T01:09:36.635Z,1010.70
2023-05-22T01:10:36.697Z,1010.71
2023-05-22T01:11:37.277Z,1010.68
2023-05-22T01:12:37.284Z,1010.70
2023-05-22T01:13:37.237Z,1010.75
2023-05-22T01:14:37.222Z,1010.68
2023-05-22T01:15:36.550Z,1010.65
2023-05-22T01:16:37.536Z,1010.71
2023-05-22T01:17:36.533Z,1010.74
2023-05-22T01:18:37.179Z,1010.72
2023-05-22T01:19:37.221Z,1010.70
2023-05-22T01:20:37.416Z,1010.66
2023-05-22T01:21:37.433Z,1010.68
2023-05-22T01:22:36.501Z,1010.69
2023-05-22T01:23:37.133Z,1010.71
2023-05-22T01:24:37.136Z,1010.69
2023-05-22T01:25:36.478Z,1010.68
2023-05-22T01:26:37.122Z,1010.67
2023-05-22T01:27:37.095Z,1010.69
2023-05-22T01:28:37.118Z,1010.73
2023-05-22T01:29:36.483Z,1010.72
2023-05-22T01:30:36.585Z,1010.74
2023-05-22T01:31:37.060Z,1010.70
2023-05-22T01:32:37.087Z,1010.64
2023-05-22T01:33:36.421Z,1010.62
2023-05-22T01:34:37.027Z,1010.61
2023-05-22T01:35:36.336Z,1010.61
2023-05-22T01:36:36.999Z,1010.57
2023-05-22T01:37:36.321Z,1010.58
2023-05-22T01:38:36.986Z,1010.62
2023-05-22T01:39:36.286Z,1010.59
2023-05-22T01:40:37.017Z,1010.59
2023-05-22T01:41:36.938Z,1010.57
2023-05-22T01:42:36.941Z,1010.55
2023-05-22T01:43:36.929Z,1010.47
2023-05-22T01:44:36.920Z,1010.54
2023-05-22T01:45:36.249Z,1010.52
2023-05-22T01:46:36.238Z,1010.54
2023-05-22T01:47:36.231Z,1010.52
2023-05-22T01:48:36.880Z,1010.49
2023-05-22T01:49:36.872Z,1010.48
2023-05-22T01:50:36.915Z,1010.50
2023-05-22T01:51:36.252Z,1010.48
2023-05-22T01:52:36.174Z,1010.50
2023-05-22T01:53:36.134Z,1010.51
2023-05-22T01:54:36.815Z,1010.47
2023-05-22T01:55:36.784Z,1010.47
2023-05-22T01:56:36.124Z,1010.45
2023-05-22T01:57:36.790Z,1010.42
2023-05-22T01:58:36.088Z,1010.39
2023-05-22T01:59:36.083Z,1010.37
2023-05-22T02:00:36.845Z,1010.40
2023-05-22T02:01:36.081Z,1010.34
2023-05-22T02:02:36.065Z,1010.31
2023-05-22T02:03:36.744Z,1010.33
2023-05-22T02:04:36.037Z,1010.33
2023-05-22T02:05:36.680Z,1010.31
2023-05-22T02:06:36.682Z,1010.30
2023-05-22T02:07:36.669Z,1010.34
2023-05-22T02:08:35.981Z,1010.29
2023-05-22T02:09:36.648Z,1010.30
2023-05-22T02:10:36.834Z,1010.28
2023-05-22T02:11:36.629Z,1010.29
2023-05-22T02:12:35.994Z,1010.30
2023-05-22T02:13:36.637Z,1010.29
2023-05-22T02:14:36.585Z,1010.33
2023-05-22T02:15:36.686Z,1010.34
2023-05-22T02:16:36.575Z,1010.30
2023-05-22T02:17:35.900Z,1010.31
2023-05-22T02:18:36.571Z,1010.34
2023-05-22T02:19:35.958Z,1010.25
2023-05-22T02:20:35.850Z,1010.25
2023-05-22T02:21:36.616Z,1010.23
2023-05-22T02:22:36.533Z,1010.32
2023-05-22T02:23:36.543Z,1010.27
2023-05-22T02:24:35.807Z,1010.26
2023-05-22T02:25:36.549Z,1010.29
2023-05-22T02:26:36.499Z,1010.31
2023-05-22T02:27:35.800Z,1010.32
2023-05-22T02:28:36.436Z,1010.28
2023-05-22T02:29:36.433Z,1010.29
2023-05-22T02:30:36.697Z,1010.24
2023-05-22T02:31:36.455Z,1010.24
2023-05-22T02:32:36.403Z,1010.22
2023-05-22T02:33:36.382Z,1010.25
2023-05-22T02:34:36.384Z,1010.21
2023-05-22T02:35:36.371Z,1010.21
2023-05-22T02:36:36.358Z,1010.20
2023-05-22T02:37:36.364Z,1010.19
2023-05-22T02:38:36.347Z,1010.18
2023-05-22T02:39:36.326Z,1010.16
2023-05-22T02:40:36.348Z,1010.16
2023-05-22T02:41:36.334Z,1010.14
2023-05-22T02:42:36.299Z,1010.11
2023-05-22T02:43:36.293Z,1010.06
2023-05-22T02:44:36.276Z,1010.08
2023-05-22T02:45:36.263Z,1010.03
2023-05-22T02:46:36.275Z,1010.03
2023-05-22T02:47:36.250Z,1010.08
2023-05-22T02:48:36.243Z,1010.03
2023-05-22T02:49:36.230Z,1010.03
2023-05-22T02:50:36.219Z,1010.04
2023-05-22T02:51:36.187Z,1010.03
2023-05-22T02:52:36.172Z,1009.99
2023-05-22T02:53:36.181Z,1010.00
2023-05-22T02:54:36.167Z,1010.00
2023-05-22T02:55:36.172Z,1009.98
2023-05-22T02:56:36.127Z,1010.01
2023-05-22T02:57:36.138Z,1010.00
2023-05-22T02:58:36.120Z,1009.98
2023-05-22T02:59:36.110Z,1009.94
2023-05-22T03:00:36.099Z,1009.91
2023-05-22T03:01:36.124Z,1009.90
2023-05-22T03:02:36.139Z,1009.88
2023-05-22T03:03:37.914Z,1009.85
2023-05-22T03:04:36.055Z,1009.89
2023-05-22T03:05:36.029Z,1009.84
2023-05-22T03:06:36.020Z,1009.85
2023-05-22T03:07:36.022Z,1009.83
2023-05-22T03:08:36.015Z,1009.88
2023-05-22T03:09:36.002Z,1009.85
2023-05-22T03:10:35.973Z,1009.88
2023-05-22T03:11:35.983Z,1009.88
2023-05-22T03:12:35.971Z,1009.84
2023-05-22T03:13:35.960Z,1009.85
2023-05-22T03:14:35.948Z,1009.82
2023-05-22T03:15:35.928Z,1009.83
2023-05-22T03:16:35.943Z,1009.84
2023-05-22T03:17:35.926Z,1009.86
2023-05-22T03:18:35.240Z,1009.83
2023-05-22T03:19:35.252Z,1009.83
2023-05-22T03:20:35.868Z,1009.78
2023-05-22T03:21:35.887Z,1009.82
2023-05-22T03:22:35.877Z,1009.82
2023-05-22T03:23:35.859Z,1009.84
2023-05-22T03:24:35.828Z,1009.84
2023-05-22T03:25:35.833Z,1009.84
2023-05-22T03:26:37.585Z,1009.80
2023-05-22T03:27:35.814Z,1009.77
2023-05-22T03:28:35.136Z,1009.77
2023-05-22T03:29:35.135Z,1009.78
2023-05-22T03:30:35.801Z,1009.78
2023-05-22T03:31:36.038Z,1009.76
2023-05-22T03:32:35.816Z,1009.81
2023-05-22T03:33:35.093Z,1009.78
2023-05-22T03:34:35.732Z,1009.74
2023-05-22T03:35:35.749Z,1009.68
2023-05-22T03:36:35.048Z,1009.63
2023-05-22T03:37:35.721Z,1009.62
2023-05-22T03:38:35.041Z,1009.59
2023-05-22T03:39:37.470Z,1009.54
2023-05-22T03:40:34.975Z,1009.46
2023-05-22T03:41:35.669Z,1009.46
2023-05-22T03:42:35.663Z,1009.45
2023-05-22T03:43:35.633Z,1009.50
2023-05-22T03:44:35.631Z,1009.51
2023-05-22T03:45:35.724Z,1009.49
2023-05-22T03:46:35.610Z,1009.49
2023-05-22T03:47:35.605Z,1009.52
2023-05-22T03:48:35.582Z,1009.47
2023-05-22T03:49:35.578Z,1009.45
2023-05-22T03:50:34.891Z,1009.48
2023-05-22T03:51:35.561Z,1009.51
2023-05-22T03:52:34.972Z,1009.52
2023-05-22T03:53:35.541Z,1009.48
2023-05-22T03:54:34.880Z,1009.44
2023-05-22T03:55:35.539Z,1009.45
2023-05-22T03:56:35.514Z,1009.43
2023-05-22T03:57:35.483Z,1009.44
2023-05-22T03:58:35.481Z,1009.45
2023-05-22T03:59:34.800Z,1009.42
2023-05-22T04:00:34.830Z,1009.46
2023-05-22T04:01:34.799Z,1009.46
2023-05-22T04:02:34.822Z,1009.48
2023-05-22T04:03:35.469Z,1009.46
2023-05-22T04:04:34.786Z,1009.44
2023-05-22T04:05:35.715Z,1009.42
2023-05-22T04:06:35.377Z,1009.42
2023-05-22T04:07:35.391Z,1009.42
2023-05-22T04:08:34.731Z,1009.42
2023-05-22T04:09:35.366Z,1009.43
2023-05-22T04:10:35.354Z,1009.45
2023-05-22T04:11:34.675Z,1009.41
2023-05-22T04:12:35.360Z,1009.40
2023-05-22T04:13:35.349Z,1009.39
2023-05-22T04:14:34.641Z,1009.41
2023-05-22T04:15:35.303Z,1009.41
2023-05-22T04:16:35.282Z,1009.39
2023-05-22T04:17:35.419Z,1009.44
2023-05-22T04:18:35.286Z,1009.47
2023-05-22T04:19:34.695Z,1009.44
2023-05-22T04:20:35.247Z,1009.47
2023-05-22T04:21:36.999Z,1009.50
2023-05-22T04:22:35.242Z,1009.51
2023-05-22T04:23:34.544Z,1009.50
2023-05-22T04:24:35.232Z,1009.49
2023-05-22T04:25:35.189Z,1009.47
2023-05-22T04:26:34.509Z,1009.51
2023-05-22T04:27:35.166Z,1009.50
2023-05-22T04:28:34.480Z,1009.52
2023-05-22T04:29:34.476Z,1009.48
2023-05-22T04:30:34.515Z,1009.52
2023-05-22T04:31:35.226Z,1009.50
2023-05-22T04:32:34.470Z,1009.51
2023-05-22T04:33:34.594Z,1009.47
2023-05-22T04:34:34.454Z,1009.47
2023-05-22T04:35:34.419Z,1009.49
2023-05-22T04:36:35.073Z,1009.50
2023-05-22T04:37:34.408Z,1009.52
2023-05-22T04:38:35.053Z,1009.53
2023-05-22T04:39:35.032Z,1009.51
2023-05-22T04:40:34.448Z,1009.51
2023-05-22T04:41:35.019Z,1009.49
2023-05-22T04:42:35.004Z,1009.54
2023-05-22T04:43:34.973Z,1009.53
2023-05-22T04:44:34.971Z,1009.55
2023-05-22T04:45:34.982Z,1009.54
2023-05-22T04:46:34.524Z,1009.55
2023-05-22T04:47:34.982Z,1009.56
2023-05-22T04:48:34.929Z,1009.51
2023-05-22T04:49:34.264Z,1009.52
2023-05-22T04:50:34.230Z,1009.47
2023-05-22T04:51:34.230Z,1009.52
2023-05-22T04:52:34.897Z,1009.52
2023-05-22T04:53:34.219Z,1009.55
2023-05-22T04:54:34.875Z,1009.57
2023-05-22T04:55:34.871Z,1009.56
2023-05-22T04:56:36.963Z,1009.55
2023-05-22T04:57:34.853Z,1009.60
2023-05-22T04:58:36.615Z,1009.49
2023-05-22T04:59:34.130Z,1009.51
2023-05-22T05:00:34.863Z,1009.57
2023-05-22T05:01:34.959Z,1009.56
2023-05-22T05:02:34.800Z,1009.53
2023-05-22T05:03:34.146Z,1009.54
2023-05-22T05:04:34.775Z,1009.59
2023-05-22T05:05:34.765Z,1009.59
2023-05-22T05:06:34.881Z,1009.61
2023-05-22T05:07:34.721Z,1009.64
2023-05-22T05:08:34.041Z,1009.68
2023-05-22T05:09:34.047Z,1009.63
2023-05-22T05:10:34.708Z,1009.64
2023-05-22T05:11:34.675Z,1009.64
2023-05-22T05:12:34.660Z,1009.62
2023-05-22T05:13:34.670Z,1009.64
2023-05-22T05:14:34.656Z,1009.63
2023-05-22T05:15:34.647Z,1009.62
2023-05-22T05:16:34.015Z,1009.65
2023-05-22T05:17:34.647Z,1009.67
2023-05-22T05:18:33.934Z,1009.71
2023-05-22T05:19:35.495Z,1009.73
2023-05-22T05:20:33.910Z,1009.74
2023-05-22T05:21:33.915Z,1009.72
2023-05-22T05:22:34.579Z,1009.78
2023-05-22T05:23:34.573Z,1009.78
2023-05-22T05:24:34.581Z,1009.80
2023-05-22T05:25:34.521Z,1009.86
2023-05-22T05:26:34.512Z,1009.85
2023-05-22T05:27:34.514Z,1009.80
2023-05-22T05:28:33.855Z,1009.83
2023-05-22T05:29:34.496Z,1009.82
2023-05-22T05:30:33.822Z,1009.84
2023-05-22T05:31:34.518Z,1009.79
2023-05-22T05:32:33.821Z,1009.84
2023-05-22T05:33:34.518Z,1009.84
2023-05-22T05:34:33.803Z,1009.84
2023-05-22T05:35:34.428Z,1009.83
2023-05-22T05:36:33.749Z,1009.84
2023-05-22T05:37:33.744Z,1009.84
2023-05-22T05:38:33.728Z,1009.87
2023-05-22T05:39:34.373Z,1009.86
2023-05-22T05:40:34.385Z,1009.86
2023-05-22T05:41:33.685Z,1009.87
2023-05-22T05:42:33.667Z,1009.86
2023-05-22T05:43:34.643Z,1009.89
2023-05-22T05:44:33.684Z,1009.85
2023-05-22T05:45:34.327Z,1009.86
2023-05-22T05:46:34.365Z,1009.88
2023-05-22T05:47:34.416Z,1009.91
2023-05-22T05:48:34.285Z,1009.94
2023-05-22T05:49:35.877Z,1009.98
2023-05-22T05:50:34.269Z,1009.96
2023-05-22T05:51:34.260Z,1009.94
2023-05-22T05:52:34.253Z,1009.95
2023-05-22T05:53:34.236Z,1009.98
2023-05-22T05:54:34.235Z,1009.99
2023-05-22T05:55:34.701Z,1010.03
2023-05-22T05:56:34.210Z,1010.07
2023-05-22T05:57:34.208Z,1010.03
2023-05-22T05:58:34.175Z,1010.05
2023-05-22T05:59:34.182Z,1010.08
2023-05-22T06:00:34.184Z,1010.13
2023-05-22T06:01:34.153Z,1010.12
2023-05-22T06:02:34.381Z,1010.17
2023-05-22T06:03:34.290Z,1010.20
2023-05-22T06:04:34.122Z,1010.19
2023-05-22T06:05:34.146Z,1010.22
2023-05-22T06:06:34.104Z,1010.20
2023-05-22T06:07:34.073Z,1010.25
2023-05-22T06:08:34.065Z,1010.25
2023-05-22T06:09:34.065Z,1010.18
2023-05-22T06:10:33.404Z,1010.15
2023-05-22T06:11:34.060Z,1010.14
2023-05-22T06:12:34.043Z,1010.16
2023-05-22T06:13:34.026Z,1010.17
2023-05-22T06:14:34.013Z,1010.14
2023-05-22T06:15:34.005Z,1010.10
2023-05-22T06:16:34.032Z,1010.18
2023-05-22T06:17:33.331Z,1010.20
2023-05-22T06:18:33.314Z,1010.25
2023-05-22T06:19:34.178Z,1010.23
2023-05-22T06:20:33.316Z,1010.24
2023-05-22T06:21:33.923Z,1010.18
2023-05-22T06:22:33.933Z,1010.20
2023-05-22T06:23:33.917Z,1010.24
2023-05-22T06:24:33.240Z,1010.23
2023-05-22T06:25:33.898Z,1010.20
2023-05-22T06:26:33.882Z,1010.20
2023-05-22T06:27:33.881Z,1010.17
2023-05-22T06:28:33.187Z,1010.17
2023-05-22T06:29:33.858Z,1010.21
2023-05-22T06:30:40.038Z,1010.21
2023-05-22T06:31:34.828Z,1010.29
2023-05-22T06:32:33.366Z,1010.26
2023-05-22T06:33:33.869Z,1010.28
2023-05-22T06:34:33.817Z,1010.29
2023-05-22T06:35:33.780Z,1010.29
2023-05-22T06:36:33.788Z,1010.31
2023-05-22T06:37:33.779Z,1010.40
2023-05-22T06:38:33.763Z,1010.41
2023-05-22T06:39:33.754Z,1010.39
2023-05-22T06:40:33.085Z,1010.39
2023-05-22T06:41:33.042Z,1010.41
2023-05-22T06:42:33.715Z,1010.36
2023-05-22T06:43:33.712Z,1010.36
2023-05-22T06:44:33.694Z,1010.41
2023-05-22T06:45:33.037Z,1010.39
2023-05-22T06:46:33.125Z,1010.37
2023-05-22T06:47:33.732Z,1010.35
2023-05-22T06:48:32.982Z,1010.39
2023-05-22T06:49:33.019Z,1010.31
2023-05-22T06:50:32.966Z,1010.44
2023-05-22T06:51:33.633Z,1010.48
2023-05-22T06:52:32.931Z,1010.42
2023-05-22T06:53:32.930Z,1010.42
2023-05-22T06:54:33.579Z,1010.50
2023-05-22T06:55:33.595Z,1010.42
2023-05-22T06:56:33.580Z,1010.32
2023-05-22T06:57:32.870Z,1010.37
2023-05-22T06:58:32.908Z,1010.36
2023-05-22T06:59:32.865Z,1010.38
2023-05-22T07:00:33.546Z,1010.38
2023-05-22T07:01:33.578Z,1010.38
2023-05-22T07:02:32.872Z,1010.39
2023-05-22T07:03:33.486Z,1010.40
2023-05-22T07:04:32.799Z,1010.36
2023-05-22T07:05:32.834Z,1010.37
2023-05-22T07:06:33.465Z,1010.36
2023-05-22T07:07:32.818Z,1010.34
2023-05-22T07:08:32.800Z,1010.38
2023-05-22T07:09:32.748Z,1010.36
2023-05-22T07:10:33.425Z,1010.40
2023-05-22T07:11:32.744Z,1010.37
2023-05-22T07:12:32.734Z,1010.39
2023-05-22T07:13:32.741Z,1010.41
2023-05-22T07:14:33.406Z,1010.38
2023-05-22T07:15:32.700Z,1010.40
2023-05-22T07:16:32.813Z,1010.39
2023-05-22T07:17:32.721Z,1010.37
2023-05-22T07:18:33.335Z,1010.42
2023-05-22T07:19:33.471Z,1010.42
2023-05-22T07:20:33.336Z,1010.40
2023-05-22T07:21:33.286Z,1010.43
2023-05-22T07:22:33.274Z,1010.38
2023-05-22T07:23:33.284Z,1010.41
2023-05-22T07:24:33.278Z,1010.38
2023-05-22T07:25:33.258Z,1010.36
2023-05-22T07:26:33.992Z,1010.40
2023-05-22T07:27:32.638Z,1010.43
2023-05-22T07:28:32.551Z,1010.41
2023-05-22T07:29:33.228Z,1010.43
2023-05-22T07:30:33.213Z,1010.44
2023-05-22T07:31:33.262Z,1010.45
2023-05-22T07:32:33.197Z,1010.47
2023-05-22T07:33:33.196Z,1010.46
2023-05-22T07:34:32.491Z,1010.50
2023-05-22T07:35:33.142Z,1010.50
2023-05-22T07:36:33.124Z,1010.52
2023-05-22T07:37:33.135Z,1010.54
2023-05-22T07:38:32.489Z,1010.52
2023-05-22T07:39:33.114Z,1010.55
2023-05-22T07:40:33.092Z,1010.51
2023-05-22T07:41:32.450Z,1010.52
2023-05-22T07:42:33.094Z,1010.54
2023-05-22T07:43:32.389Z,1010.56
2023-05-22T07:44:33.057Z,1010.52
2023-05-22T07:45:33.028Z,1010.53
2023-05-22T07:46:32.472Z,1010.51
2023-05-22T07:47:32.401Z,1010.53
2023-05-22T07:48:33.027Z,1010.50
2023-05-22T07:49:32.339Z,1010.51
2023-05-22T07:50:32.978Z,1010.51
2023-05-22T07:51:32.305Z,1010.55
2023-05-22T07:52:32.298Z,1010.57
2023-05-22T07:53:32.965Z,1010.59
2023-05-22T07:54:32.339Z,1010.65
2023-05-22T07:55:32.259Z,1010.64
2023-05-22T07:56:32.258Z,1010.67
2023-05-22T07:57:32.917Z,1010.67
2023-05-22T07:58:32.292Z,1010.66
2023-05-22T07:59:32.336Z,1010.70
2023-05-22T08:00:32.889Z,1010.73
2023-05-22T08:01:32.878Z,1010.74
2023-05-22T08:02:32.294Z,1010.75
2023-05-22T08:03:32.988Z,1010.71
2023-05-22T08:04:32.274Z,1010.73
2023-05-22T08:05:32.840Z,1010.72
2023-05-22T08:06:32.858Z,1010.73
2023-05-22T08:07:32.819Z,1010.74
2023-05-22T08:08:32.796Z,1010.63
2023-05-22T08:09:32.120Z,1010.72
2023-05-22T08:10:46.377Z,1010.71
2023-05-22T08:11:35.026Z,1010.75
2023-05-22T08:12:32.062Z,1010.78
2023-05-22T08:13:32.749Z,1010.81
2023-05-22T08:14:32.750Z,1010.80
2023-05-22T08:15:32.040Z,1010.85
2023-05-22T08:16:32.098Z,1010.81
2023-05-22T08:17:32.765Z,1010.82
2023-05-22T08:18:32.034Z,1010.78
2023-05-22T08:19:32.209Z,1010.74
2023-05-22T08:20:32.726Z,1010.74
2023-05-22T08:21:31.984Z,1010.80
2023-05-22T08:22:32.011Z,1010.78
2023-05-22T08:23:31.991Z,1010.76
2023-05-22T08:24:31.936Z,1010.77
2023-05-22T08:25:32.623Z,1010.79
2023-05-22T08:26:32.305Z,1010.79
2023-05-22T08:27:31.923Z,1010.79
2023-05-22T08:28:32.590Z,1010.80
2023-05-22T08:29:31.907Z,1010.73
2023-05-22T08:30:31.942Z,1010.77
2023-05-22T08:31:32.631Z,1010.77
2023-05-22T08:32:31.977Z,1010.76
2023-05-22T08:33:31.854Z,1010.80
2023-05-22T08:34:31.848Z,1010.80
2023-05-22T08:35:31.846Z,1010.81
2023-05-22T08:36:31.844Z,1010.80
2023-05-22T08:37:32.495Z,1010.77
2023-05-22T08:38:31.796Z,1010.78
2023-05-22T08:39:31.784Z,1010.76
2023-05-22T08:40:32.465Z,1010.76
2023-05-22T08:41:32.445Z,1010.79
2023-05-22T08:42:31.784Z,1010.77
2023-05-22T08:43:32.525Z,1010.76
2023-05-22T08:44:31.737Z,1010.78
2023-05-22T08:45:31.745Z,1010.79
2023-05-22T08:46:31.796Z,1010.73
2023-05-22T08:47:31.704Z,1010.72
2023-05-22T08:48:32.382Z,1010.74
2023-05-22T08:49:31.686Z,1010.76
2023-05-22T08:50:32.352Z,1010.71
2023-05-22T08:51:31.733Z,1010.69
2023-05-22T08:52:32.345Z,1010.69
2023-05-22T08:53:31.665Z,1010.67
2023-05-22T08:54:31.668Z,1010.66
2023-05-22T08:55:31.655Z,1010.64
2023-05-22T08:56:33.526Z,1010.66
2023-05-22T08:57:31.600Z,1010.70
2023-05-22T08:58:32.288Z,1010.68
2023-05-22T08:59:32.256Z,1010.72
2023-05-22T09:00:32.244Z,1010.70
2023-05-22T09:01:31.627Z,1010.67
2023-05-22T09:02:32.252Z,1010.66
2023-05-22T09:03:32.274Z,1010.70
2023-05-22T09:04:31.578Z,1010.65
2023-05-22T09:05:31.560Z,1010.64
2023-05-22T09:06:32.207Z,1010.64
2023-05-22T09:07:31.504Z,1010.65
2023-05-22T09:08:31.515Z,1010.68
2023-05-22T09:09:31.528Z,1010.67
2023-05-22T09:10:31.478Z,1010.66
2023-05-22T09:11:31.508Z,1010.67
2023-05-22T09:12:32.143Z,1010.67
2023-05-22T09:13:31.509Z,1010.69
2023-05-22T09:14:32.104Z,1010.69
2023-05-22T09:15:31.427Z,1010.64
2023-05-22T09:17:32.176Z,1010.61
2023-05-22T09:18:31.427Z,1010.63
2023-05-22T09:19:31.432Z,1010.60
2023-05-22T09:20:32.071Z,1010.61
2023-05-22T09:21:32.073Z,1010.61
2023-05-22T09:22:31.367Z,1010.61
2023-05-22T09:23:31.381Z,1010.60
2023-05-22T09:24:32.057Z,1010.58
2023-05-22T09:25:32.033Z,1010.61
2023-05-22T09:26:31.303Z,1010.60
2023-05-22T09:27:31.323Z,1010.56
2023-05-22T09:28:31.974Z,1010.60
2023-05-22T09:29:31.977Z,1010.62
2023-05-22T09:30:31.281Z,1010.57
2023-05-22T09:31:31.284Z,1010.57
2023-05-22T09:32:31.358Z,1010.53
2023-05-22T09:33:31.244Z,1010.55
2023-05-22T09:34:31.236Z,1010.54
2023-05-22T09:35:31.910Z,1010.53
2023-05-22T09:36:31.900Z,1010.52
2023-05-22T09:37:31.221Z,1010.50
2023-05-22T09:38:31.188Z,1010.54
2023-05-22T09:39:31.189Z,1010.50
2023-05-22T09:40:31.862Z,1010.57
2023-05-22T09:41:31.845Z,1010.58
2023-05-22T09:42:31.822Z,1010.58
2023-05-22T09:43:31.829Z,1010.55
2023-05-22T09:44:31.822Z,1010.55
2023-05-22T09:45:31.129Z,1010.53
2023-05-22T09:46:31.815Z,1010.54
2023-05-22T09:47:31.149Z,1010.50
2023-05-22T09:48:31.097Z,1010.47
2023-05-22T09:49:31.768Z,1010.47
2023-05-22T09:50:31.786Z,1010.52
2023-05-22T09:51:31.765Z,1010.56
2023-05-22T09:52:31.740Z,1010.54
2023-05-22T09:53:31.730Z,1010.56
2023-05-22T09:54:31.722Z,1010.57
2023-05-22T09:55:31.696Z,1010.53
2023-05-22T09:56:39.289Z,1010.54
2023-05-22T09:57:31.998Z,1010.56
2023-05-22T09:58:31.687Z,1010.55
2023-05-22T09:59:30.984Z,1010.56
2023-05-22T10:00:31.639Z,1010.56
2023-05-22T10:01:31.694Z,1010.53
2023-05-22T10:02:31.034Z,1010.58
2023-05-22T10:03:30.949Z,1010.55
2023-05-22T10:04:31.020Z,1010.52
2023-05-22T10:05:31.617Z,1010.53
2023-05-22T10:06:30.917Z,1010.51
2023-05-22T10:07:31.584Z,1010.45
2023-05-22T10:08:30.888Z,1010.46
2023-05-22T10:09:31.561Z,1010.44
2023-05-22T10:10:30.876Z,1010.45
2023-05-22T10:11:31.541Z,1010.43
2023-05-22T10:12:33.298Z,1010.42
2023-05-22T10:13:30.849Z,1010.47
2023-05-22T10:14:31.099Z,1010.47
2023-05-22T10:15:30.814Z,1010.47
2023-05-22T10:16:30.839Z,1010.47
2023-05-22T10:17:31.498Z,1010.45
2023-05-22T10:18:30.828Z,1010.49
2023-05-22T10:19:30.914Z,1010.42
2023-05-22T10:20:30.773Z,1010.43
2023-05-22T10:21:30.757Z,1010.46
2023-05-22T10:22:30.768Z,1010.49
2023-05-22T10:23:31.410Z,1010.46
2023-05-22T10:24:30.773Z,1010.46
2023-05-22T10:25:31.399Z,1010.53
2023-05-22T10:26:30.714Z,1010.53
2023-05-22T10:27:30.711Z,1010.57
2023-05-22T10:28:30.710Z,1010.58
2023-05-22T10:29:31.356Z,1010.58
2023-05-22T10:30:31.347Z,1010.53
2023-05-22T10:31:30.669Z,1010.53
2023-05-22T10:32:31.364Z,1010.48
2023-05-22T10:33:31.366Z,1010.49
2023-05-22T10:34:31.411Z,1010.48
2023-05-22T10:35:31.306Z,1010.46
2023-05-22T10:36:31.290Z,1010.48
2023-05-22T10:37:31.253Z,1010.43
2023-05-22T10:38:31.264Z,1010.43
2023-05-22T10:39:31.252Z,1010.40
2023-05-22T10:40:31.248Z,1010.41
2023-05-22T10:41:31.247Z,1010.39
2023-05-22T10:42:31.256Z,1010.37
2023-05-22T10:43:31.214Z,1010.32
2023-05-22T10:44:31.199Z,1010.29
2023-05-22T10:45:30.716Z,1010.24
2023-05-22T10:46:31.264Z,1010.20
2023-05-22T10:47:31.173Z,1010.18
2023-05-22T10:48:30.506Z,1010.19
2023-05-22T10:49:30.576Z,1010.21
2023-05-22T10:50:30.595Z,1010.18
2023-05-22T10:51:30.509Z,1010.21
2023-05-22T10:52:31.152Z,1010.13
2023-05-22T10:53:31.110Z,1010.15
2023-05-22T10:54:30.559Z,1010.13
2023-05-22T10:55:31.071Z,1010.10
2023-05-22T10:56:31.065Z,1010.05
2023-05-22T10:57:30.392Z,1010.11
2023-05-22T10:58:31.069Z,1010.07
2023-05-22T10:59:31.051Z,1010.11
2023-05-22T11:00:31.052Z,1010.09
2023-05-22T11:01:30.387Z,1010.09
2023-05-22T11:02:30.487Z,1010.07
2023-05-22T11:03:31.174Z,1010.13
2023-05-22T11:04:31.032Z,1010.15
2023-05-22T11:05:30.323Z,1010.14
2023-05-22T11:06:30.322Z,1010.15
2023-05-22T11:07:30.990Z,1010.13
2023-05-22T11:08:30.295Z,1010.16
2023-05-22T11:09:30.316Z,1010.10
2023-05-22T11:10:30.921Z,1010.11
2023-05-22T11:11:30.928Z,1010.09
2023-05-22T11:12:30.977Z,1010.10
2023-05-22T11:13:30.917Z,1010.06
2023-05-22T11:14:30.879Z,1010.12
2023-05-22T11:15:30.216Z,1010.12
2023-05-22T11:16:30.929Z,1010.08
2023-05-22T11:17:30.957Z,1010.05
2023-05-22T11:18:30.855Z,1010.05
2023-05-22T11:19:30.199Z,1010.04
2023-05-22T11:20:30.833Z,1010.04
2023-05-22T11:21:30.152Z,1010.01
2023-05-22T11:22:30.828Z,1010.01
2023-05-22T11:23:30.148Z,1009.96
2023-05-22T11:24:30.774Z,1009.94
2023-05-22T11:25:30.802Z,1009.99
2023-05-22T11:26:30.777Z,1009.98
2023-05-22T11:27:30.758Z,1009.94
2023-05-22T11:28:30.078Z,1009.93
2023-05-22T11:29:30.739Z,1009.90
2023-05-22T11:30:30.731Z,1009.93
2023-05-22T11:31:30.785Z,1009.94
2023-05-22T11:32:30.768Z,1009.93
2023-05-22T11:33:30.679Z,1009.94
2023-05-22T11:34:30.690Z,1009.93
2023-05-22T11:35:30.680Z,1009.92
2023-05-22T11:36:30.000Z,1009.90
2023-05-22T11:37:30.660Z,1009.85
2023-05-22T11:38:30.661Z,1009.87
2023-05-22T11:39:30.639Z,1009.91
2023-05-22T11:40:30.657Z,1009.89
2023-05-22T11:41:33.040Z,1009.93
2023-05-22T11:42:31.866Z,1009.92
2023-05-22T11:43:29.894Z,1009.94
2023-05-22T11:44:30.654Z,1009.94
2023-05-22T11:45:29.904Z,1009.91
2023-05-22T11:46:30.645Z,1009.90
2023-05-22T11:47:30.656Z,1009.92
2023-05-22T11:48:30.612Z,1009.90
2023-05-22T11:49:29.852Z,1009.92
2023-05-22T11:50:40.974Z,1009.92
2023-05-22T11:51:30.828Z,1009.92
2023-05-22T11:52:29.859Z,1009.89
2023-05-22T11:53:30.595Z,1009.89
2023-05-22T11:54:29.820Z,1009.87
2023-05-22T11:55:30.472Z,1009.86
2023-05-22T11:56:30.440Z,1009.86
2023-05-22T11:57:30.453Z,1009.86
2023-05-22T11:58:30.449Z,1009.84
2023-05-22T11:59:29.733Z,1009.83
2023-05-22T12:00:29.823Z,1009.84
2023-05-22T12:01:30.384Z,1009.83
2023-05-22T12:02:29.778Z,1009.83
2023-05-22T12:03:30.528Z,1009.79
2023-05-22T12:04:29.715Z,1009.84
2023-05-22T12:05:30.348Z,1009.78
2023-05-22T12:06:30.386Z,1009.80